sensor_id;sensor_type;location;lat;lon;timestamp;P1;durP1;ratioP1;P2;durP2;ratioP2
6017;SDS011;3037;51.068;13.780;2022-10-31T00:01:34;43.63;;;25.83;;
6017;SDS011;3037;51.068;13.780;2022-10-31T00:04:01;46.43;;;26.70;;
6017;SDS011;3037;51.068;13.780;2022-10-31T00:06:27;50.03;;;24.67;;
6017;SDS011;3037;51.068;13.780;2022-10-31T00:08:57;53.03;;;24.80;;
6017;SDS011;3037;51.068;13.780;2022-10-31T00:11:24;50.83;;;25.20;;
6017;SDS011;3037;51.068;13.780;2022-10-31T00:13:50;40.50;;;22.90;;
6017;SDS011;3037;51.068;13.780;2022-10-31T00:16:17;48.40;;;24.10;;
6017;SDS011;3037;51.068;13.780;2022-10-31T00:18:48;34.47;;;23.17;;
6017;SDS011;3037;51.068;13.780;2022-10-31T00:21:15;54.73;;;25.67;;
6017;SDS011;3037;51.068;13.780;2022-10-31T00:23:41;45.57;;;23.83;;
6017;SDS011;3037;51.068;13.780;2022-10-31T00:26:06;39.83;;;23.83;;
6017;SDS011;3037;51.068;13.780;2022-10-31T00:28:33;40.23;;;23.20;;
6017;SDS011;3037;51.068;13.780;2022-10-31T00:31:02;42.57;;;22.80;;
6017;SDS011;3037;51.068;13.780;2022-10-31T00:33:32;47.30;;;24.07;;
6017;SDS011;3037;51.068;13.780;2022-10-31T00:36:00;34.00;;;21.47;;
6017;SDS011;3037;51.068;13.780;2022-10-31T00:38:25;41.57;;;23.80;;
6017;SDS011;3037;51.068;13.780;2022-10-31T00:40:51;34.03;;;22.47;;
6017;SDS011;3037;51.068;13.780;2022-10-31T00:43:16;43.57;;;22.83;;
6017;SDS011;3037;51.068;13.780;2022-10-31T00:45:42;38.33;;;20.13;;
6017;SDS011;3037;51.068;13.780;2022-10-31T00:48:08;34.93;;;21.17;;
6017;SDS011;3037;51.068;13.780;2022-10-31T00:50:34;43.07;;;22.90;;
6017;SDS011;3037;51.068;13.780;2022-10-31T00:52:59;34.20;;;21.47;;
6017;SDS011;3037;51.068;13.780;2022-10-31T00:55:25;41.10;;;23.10;;
6017;SDS011;3037;51.068;13.780;2022-10-31T00:57:50;42.33;;;23.20;;
6017;SDS011;3037;51.068;13.780;2022-10-31T01:00:16;34.83;;;22.03;;
6017;SDS011;3037;51.068;13.780;2022-10-31T01:02:42;36.40;;;22.17;;
6017;SDS011;3037;51.068;13.780;2022-10-31T01:05:07;53.87;;;22.50;;
6017;SDS011;3037;51.068;13.780;2022-10-31T01:07:36;41.90;;;24.63;;
6017;SDS011;3037;51.068;13.780;2022-10-31T01:10:03;35.73;;;22.33;;
6017;SDS011;3037;51.068;13.780;2022-10-31T01:12:29;41.30;;;24.63;;
6017;SDS011;3037;51.068;13.780;2022-10-31T01:14:54;45.10;;;23.53;;
6017;SDS011;3037;51.068;13.780;2022-10-31T01:17:20;41.80;;;24.53;;
6017;SDS011;3037;51.068;13.780;2022-10-31T01:19:45;47.27;;;23.93;;
6017;SDS011;3037;51.068;13.780;2022-10-31T01:22:11;42.93;;;22.10;;
6017;SDS011;3037;51.068;13.780;2022-10-31T01:24:36;36.93;;;23.57;;
6017;SDS011;3037;51.068;13.780;2022-10-31T01:27:02;36.13;;;21.70;;
6017;SDS011;3037;51.068;13.780;2022-10-31T01:29:28;42.03;;;22.10;;
6017;SDS011;3037;51.068;13.780;2022-10-31T01:31:53;37.63;;;22.73;;
6017;SDS011;3037;51.068;13.780;2022-10-31T01:34:19;34.17;;;21.67;;
6017;SDS011;3037;51.068;13.780;2022-10-31T01:36:45;46.77;;;21.77;;
6017;SDS011;3037;51.068;13.780;2022-10-31T01:39:15;41.73;;;23.80;;
6017;SDS011;3037;51.068;13.780;2022-10-31T01:41:44;37.27;;;23.50;;
6017;SDS011;3037;51.068;13.780;2022-10-31T01:46:44;36.17;;;21.03;;
6017;SDS011;3037;51.068;13.780;2022-10-31T01:49:16;48.10;;;24.97;;
6017;SDS011;3037;51.068;13.780;2022-10-31T01:51:47;36.83;;;21.10;;
6017;SDS011;3037;51.068;13.780;2022-10-31T01:54:21;44.13;;;22.57;;
6017;SDS011;3037;51.068;13.780;2022-10-31T01:56:49;45.10;;;23.10;;
6017;SDS011;3037;51.068;13.780;2022-10-31T01:59:19;58.20;;;23.90;;
6017;SDS011;3037;51.068;13.780;2022-10-31T02:01:46;40.80;;;22.20;;
6017;SDS011;3037;51.068;13.780;2022-10-31T02:04:15;43.93;;;21.90;;
6017;SDS011;3037;51.068;13.780;2022-10-31T02:06:46;40.73;;;21.60;;
6017;SDS011;3037;51.068;13.780;2022-10-31T02:09:18;44.70;;;21.37;;
6017;SDS011;3037;51.068;13.780;2022-10-31T02:11:48;33.97;;;20.70;;
6017;SDS011;3037;51.068;13.780;2022-10-31T02:14:16;48.50;;;21.10;;
6017;SDS011;3037;51.068;13.780;2022-10-31T02:16:42;42.33;;;19.93;;
6017;SDS011;3037;51.068;13.780;2022-10-31T02:19:08;38.03;;;20.30;;
6017;SDS011;3037;51.068;13.780;2022-10-31T02:21:44;37.13;;;21.13;;
6017;SDS011;3037;51.068;13.780;2022-10-31T02:27:15;36.60;;;19.27;;
6017;SDS011;3037;51.068;13.780;2022-10-31T02:32:17;40.00;;;19.97;;
6017;SDS011;3037;51.068;13.780;2022-10-31T02:34:53;36.97;;;19.10;;
6017;SDS011;3037;51.068;13.780;2022-10-31T02:40:04;45.90;;;18.70;;
6017;SDS011;3037;51.068;13.780;2022-10-31T02:42:51;32.33;;;18.70;;
6017;SDS011;3037;51.068;13.780;2022-10-31T02:45:41;49.23;;;18.83;;
6017;SDS011;3037;51.068;13.780;2022-10-31T02:48:20;45.60;;;17.70;;
6017;SDS011;3037;51.068;13.780;2022-10-31T02:50:58;36.33;;;18.63;;
6017;SDS011;3037;51.068;13.780;2022-10-31T02:53:25;36.50;;;19.20;;
6017;SDS011;3037;51.068;13.780;2022-10-31T02:55:56;33.10;;;19.73;;
6017;SDS011;3037;51.068;13.780;2022-10-31T02:58:26;46.10;;;18.60;;
6017;SDS011;3037;51.068;13.780;2022-10-31T03:01:16;30.33;;;19.20;;
6017;SDS011;3037;51.068;13.780;2022-10-31T03:06:51;31.57;;;17.93;;
6017;SDS011;3037;51.068;13.780;2022-10-31T03:09:32;30.00;;;16.60;;
6017;SDS011;3037;51.068;13.780;2022-10-31T03:12:07;36.53;;;19.27;;
6017;SDS011;3037;51.068;13.780;2022-10-31T03:15:06;28.00;;;17.57;;
6017;SDS011;3037;51.068;13.780;2022-10-31T03:20:20;34.13;;;20.07;;
6017;SDS011;3037;51.068;13.780;2022-10-31T03:23:15;27.87;;;18.10;;
6017;SDS011;3037;51.068;13.780;2022-10-31T03:25:42;45.77;;;19.47;;
6017;SDS011;3037;51.068;13.780;2022-10-31T03:28:11;31.40;;;20.40;;
6017;SDS011;3037;51.068;13.780;2022-10-31T03:30:39;34.80;;;19.00;;
6017;SDS011;3037;51.068;13.780;2022-10-31T03:33:09;34.40;;;18.93;;
6017;SDS011;3037;51.068;13.780;2022-10-31T03:35:38;28.30;;;18.43;;
6017;SDS011;3037;51.068;13.780;2022-10-31T03:38:07;31.97;;;18.70;;
6017;SDS011;3037;51.068;13.780;2022-10-31T03:40:34;39.80;;;18.70;;
6017;SDS011;3037;51.068;13.780;2022-10-31T03:43:07;29.40;;;16.57;;
6017;SDS011;3037;51.068;13.780;2022-10-31T03:45:41;37.80;;;18.93;;
6017;SDS011;3037;51.068;13.780;2022-10-31T03:48:10;32.93;;;19.87;;
6017;SDS011;3037;51.068;13.780;2022-10-31T03:50:44;39.93;;;20.00;;
6017;SDS011;3037;51.068;13.780;2022-10-31T03:53:39;28.27;;;18.27;;
6017;SDS011;3037;51.068;13.780;2022-10-31T03:56:16;38.93;;;20.90;;
6017;SDS011;3037;51.068;13.780;2022-10-31T03:58:53;35.37;;;18.07;;
6017;SDS011;3037;51.068;13.780;2022-10-31T04:01:25;30.80;;;20.20;;
6017;SDS011;3037;51.068;13.780;2022-10-31T04:03:53;33.03;;;18.73;;
6017;SDS011;3037;51.068;13.780;2022-10-31T04:06:20;34.17;;;19.83;;
6017;SDS011;3037;51.068;13.780;2022-10-31T04:08:49;27.17;;;18.30;;
6017;SDS011;3037;51.068;13.780;2022-10-31T04:11:19;34.13;;;20.03;;
6017;SDS011;3037;51.068;13.780;2022-10-31T04:13:48;29.93;;;18.47;;
6017;SDS011;3037;51.068;13.780;2022-10-31T04:16:15;34.70;;;21.47;;
6017;SDS011;3037;51.068;13.780;2022-10-31T04:18:41;33.33;;;21.10;;
6017;SDS011;3037;51.068;13.780;2022-10-31T04:21:07;37.80;;;20.17;;
6017;SDS011;3037;51.068;13.780;2022-10-31T04:23:33;34.90;;;21.33;;
6017;SDS011;3037;51.068;13.780;2022-10-31T04:26:00;37.37;;;20.20;;
6017;SDS011;3037;51.068;13.780;2022-10-31T04:28:26;34.03;;;19.60;;
6017;SDS011;3037;51.068;13.780;2022-10-31T04:30:52;28.17;;;17.73;;
6017;SDS011;3037;51.068;13.780;2022-10-31T04:33:18;31.53;;;19.77;;
6017;SDS011;3037;51.068;13.780;2022-10-31T04:35:44;31.40;;;19.87;;
6017;SDS011;3037;51.068;13.780;2022-10-31T04:38:10;32.27;;;19.23;;
6017;SDS011;3037;51.068;13.780;2022-10-31T04:40:35;30.30;;;18.27;;
6017;SDS011;3037;51.068;13.780;2022-10-31T04:43:01;29.20;;;18.73;;
6017;SDS011;3037;51.068;13.780;2022-10-31T04:45:26;29.27;;;19.70;;
6017;SDS011;3037;51.068;13.780;2022-10-31T04:47:52;35.33;;;18.10;;
6017;SDS011;3037;51.068;13.780;2022-10-31T04:50:17;27.57;;;18.97;;
6017;SDS011;3037;51.068;13.780;2022-10-31T04:52:43;32.00;;;18.40;;
6017;SDS011;3037;51.068;13.780;2022-10-31T04:55:10;30.73;;;18.00;;
6017;SDS011;3037;51.068;13.780;2022-10-31T04:57:43;35.87;;;20.97;;
6017;SDS011;3037;51.068;13.780;2022-10-31T05:00:13;27.30;;;18.10;;
6017;SDS011;3037;51.068;13.780;2022-10-31T05:02:45;29.37;;;19.57;;
6017;SDS011;3037;51.068;13.780;2022-10-31T05:05:12;30.23;;;19.70;;
6017;SDS011;3037;51.068;13.780;2022-10-31T05:07:42;27.17;;;17.33;;
6017;SDS011;3037;51.068;13.780;2022-10-31T05:10:10;28.50;;;18.00;;
6017;SDS011;3037;51.068;13.780;2022-10-31T05:12:37;24.30;;;16.43;;
6017;SDS011;3037;51.068;13.780;2022-10-31T05:15:09;33.67;;;18.33;;
6017;SDS011;3037;51.068;13.780;2022-10-31T05:17:35;35.37;;;18.27;;
6017;SDS011;3037;51.068;13.780;2022-10-31T05:20:00;22.40;;;17.93;;
6017;SDS011;3037;51.068;13.780;2022-10-31T05:22:26;24.43;;;18.57;;
6017;SDS011;3037;51.068;13.780;2022-10-31T05:27:19;31.77;;;19.27;;
6017;SDS011;3037;51.068;13.780;2022-10-31T05:29:45;26.07;;;17.90;;
6017;SDS011;3037;51.068;13.780;2022-10-31T05:32:11;25.63;;;17.30;;
6017;SDS011;3037;51.068;13.780;2022-10-31T05:34:37;27.83;;;17.53;;
6017;SDS011;3037;51.068;13.780;2022-10-31T05:37:02;26.00;;;17.47;;
6017;SDS011;3037;51.068;13.780;2022-10-31T05:39:28;29.50;;;16.27;;
6017;SDS011;3037;51.068;13.780;2022-10-31T05:41:53;23.43;;;16.70;;
6017;SDS011;3037;51.068;13.780;2022-10-31T05:44:19;22.67;;;16.47;;
6017;SDS011;3037;51.068;13.780;2022-10-31T05:46:45;27.50;;;17.13;;
6017;SDS011;3037;51.068;13.780;2022-10-31T05:49:11;21.30;;;16.07;;
6017;SDS011;3037;51.068;13.780;2022-10-31T05:51:37;26.20;;;16.50;;
6017;SDS011;3037;51.068;13.780;2022-10-31T05:54:02;22.13;;;16.30;;
6017;SDS011;3037;51.068;13.780;2022-10-31T05:56:28;31.10;;;17.90;;
6017;SDS011;3037;51.068;13.780;2022-10-31T05:58:54;28.20;;;17.77;;
6017;SDS011;3037;51.068;13.780;2022-10-31T06:01:19;24.50;;;16.27;;
6017;SDS011;3037;51.068;13.780;2022-10-31T06:03:45;24.63;;;17.00;;
6017;SDS011;3037;51.068;13.780;2022-10-31T06:06:10;26.90;;;16.00;;
6017;SDS011;3037;51.068;13.780;2022-10-31T06:08:36;19.43;;;16.27;;
6017;SDS011;3037;51.068;13.780;2022-10-31T06:11:02;23.07;;;16.70;;
6017;SDS011;3037;51.068;13.780;2022-10-31T06:13:27;23.63;;;15.63;;
6017;SDS011;3037;51.068;13.780;2022-10-31T06:15:53;25.30;;;16.73;;
6017;SDS011;3037;51.068;13.780;2022-10-31T06:18:18;27.50;;;16.37;;
6017;SDS011;3037;51.068;13.780;2022-10-31T06:20:44;28.00;;;16.90;;
6017;SDS011;3037;51.068;13.780;2022-10-31T06:23:10;26.40;;;16.17;;
6017;SDS011;3037;51.068;13.780;2022-10-31T06:25:35;20.27;;;16.10;;
6017;SDS011;3037;51.068;13.780;2022-10-31T06:28:01;24.20;;;15.77;;
6017;SDS011;3037;51.068;13.780;2022-10-31T06:30:26;20.67;;;14.90;;
6017;SDS011;3037;51.068;13.780;2022-10-31T06:32:52;25.63;;;14.27;;
6017;SDS011;3037;51.068;13.780;2022-10-31T06:35:17;24.23;;;15.13;;
6017;SDS011;3037;51.068;13.780;2022-10-31T06:37:50;17.10;;;13.73;;
6017;SDS011;3037;51.068;13.780;2022-10-31T06:40:16;20.10;;;13.50;;
6017;SDS011;3037;51.068;13.780;2022-10-31T06:42:42;20.10;;;13.43;;
6017;SDS011;3037;51.068;13.780;2022-10-31T06:45:08;17.83;;;13.40;;
6017;SDS011;3037;51.068;13.780;2022-10-31T06:47:33;19.03;;;13.47;;
6017;SDS011;3037;51.068;13.780;2022-10-31T06:49:59;23.40;;;13.83;;
6017;SDS011;3037;51.068;13.780;2022-10-31T06:52:24;16.37;;;13.30;;
6017;SDS011;3037;51.068;13.780;2022-10-31T06:54:50;16.83;;;12.53;;
6017;SDS011;3037;51.068;13.780;2022-10-31T06:57:15;21.03;;;13.10;;
6017;SDS011;3037;51.068;13.780;2022-10-31T06:59:41;15.10;;;13.17;;
6017;SDS011;3037;51.068;13.780;2022-10-31T07:02:08;18.27;;;12.40;;
6017;SDS011;3037;51.068;13.780;2022-10-31T07:04:35;16.90;;;11.97;;
6017;SDS011;3037;51.068;13.780;2022-10-31T07:07:01;15.03;;;11.50;;
6017;SDS011;3037;51.068;13.780;2022-10-31T07:09:26;13.13;;;11.53;;
6017;SDS011;3037;51.068;13.780;2022-10-31T07:11:52;18.83;;;12.73;;
6017;SDS011;3037;51.068;13.780;2022-10-31T07:14:18;24.70;;;10.87;;
6017;SDS011;3037;51.068;13.780;2022-10-31T07:16:44;15.30;;;10.67;;
6017;SDS011;3037;51.068;13.780;2022-10-31T07:19:14;11.63;;;9.67;;
6017;SDS011;3037;51.068;13.780;2022-10-31T07:21:39;15.57;;;10.17;;
6017;SDS011;3037;51.068;13.780;2022-10-31T07:24:05;15.93;;;9.60;;
6017;SDS011;3037;51.068;13.780;2022-10-31T07:26:30;10.90;;;9.33;;
6017;SDS011;3037;51.068;13.780;2022-10-31T07:28:56;16.63;;;9.27;;
6017;SDS011;3037;51.068;13.780;2022-10-31T07:31:21;11.37;;;9.10;;
6017;SDS011;3037;51.068;13.780;2022-10-31T07:33:47;12.10;;;7.60;;
6017;SDS011;3037;51.068;13.780;2022-10-31T07:36:13;12.13;;;8.57;;
6017;SDS011;3037;51.068;13.780;2022-10-31T07:38:38;12.50;;;9.47;;
6017;SDS011;3037;51.068;13.780;2022-10-31T07:41:04;8.93;;;7.70;;
6017;SDS011;3037;51.068;13.780;2022-10-31T07:43:29;12.60;;;9.23;;
6017;SDS011;3037;51.068;13.780;2022-10-31T07:45:55;12.37;;;8.87;;
6017;SDS011;3037;51.068;13.780;2022-10-31T07:48:20;11.37;;;7.83;;
6017;SDS011;3037;51.068;13.780;2022-10-31T07:50:46;9.30;;;7.50;;
6017;SDS011;3037;51.068;13.780;2022-10-31T07:53:12;11.70;;;7.63;;
6017;SDS011;3037;51.068;13.780;2022-10-31T07:55:39;12.20;;;9.00;;
6017;SDS011;3037;51.068;13.780;2022-10-31T07:58:05;9.97;;;7.80;;
6017;SDS011;3037;51.068;13.780;2022-10-31T08:00:33;15.23;;;8.77;;
6017;SDS011;3037;51.068;13.780;2022-10-31T08:03:00;10.40;;;8.20;;
6017;SDS011;3037;51.068;13.780;2022-10-31T08:05:33;10.60;;;8.03;;
6017;SDS011;3037;51.068;13.780;2022-10-31T08:07:59;14.40;;;8.50;;
6017;SDS011;3037;51.068;13.780;2022-10-31T08:10:26;10.03;;;8.43;;
6017;SDS011;3037;51.068;13.780;2022-10-31T08:12:58;7.97;;;7.17;;
6017;SDS011;3037;51.068;13.780;2022-10-31T08:15:29;8.90;;;8.00;;
6017;SDS011;3037;51.068;13.780;2022-10-31T08:17:55;10.10;;;9.10;;
6017;SDS011;3037;51.068;13.780;2022-10-31T08:20:21;8.93;;;7.37;;
6017;SDS011;3037;51.068;13.780;2022-10-31T08:22:57;8.57;;;7.67;;
6017;SDS011;3037;51.068;13.780;2022-10-31T08:25:25;8.57;;;7.57;;
6017;SDS011;3037;51.068;13.780;2022-10-31T08:27:52;8.40;;;7.60;;
6017;SDS011;3037;51.068;13.780;2022-10-31T08:30:19;9.63;;;7.73;;
6017;SDS011;3037;51.068;13.780;2022-10-31T08:32:46;10.97;;;7.77;;
6017;SDS011;3037;51.068;13.780;2022-10-31T08:35:12;8.67;;;7.97;;
6017;SDS011;3037;51.068;13.780;2022-10-31T08:37:38;12.07;;;7.80;;
6017;SDS011;3037;51.068;13.780;2022-10-31T08:40:04;9.27;;;6.93;;
6017;SDS011;3037;51.068;13.780;2022-10-31T08:42:31;9.30;;;7.50;;
6017;SDS011;3037;51.068;13.780;2022-10-31T08:44:57;19.03;;;7.70;;
6017;SDS011;3037;51.068;13.780;2022-10-31T08:47:22;8.80;;;7.10;;
6017;SDS011;3037;51.068;13.780;2022-10-31T08:49:48;12.10;;;7.70;;
6017;SDS011;3037;51.068;13.780;2022-10-31T08:52:13;8.33;;;7.40;;
6017;SDS011;3037;51.068;13.780;2022-10-31T08:54:39;12.53;;;6.70;;
6017;SDS011;3037;51.068;13.780;2022-10-31T08:57:05;8.63;;;7.80;;
6017;SDS011;3037;51.068;13.780;2022-10-31T08:59:31;13.13;;;7.40;;
6017;SDS011;3037;51.068;13.780;2022-10-31T09:01:56;8.90;;;7.07;;
6017;SDS011;3037;51.068;13.780;2022-10-31T09:04:22;9.40;;;7.17;;
6017;SDS011;3037;51.068;13.780;2022-10-31T09:06:47;11.17;;;7.73;;
6017;SDS011;3037;51.068;13.780;2022-10-31T09:09:13;11.90;;;7.40;;
6017;SDS011;3037;51.068;13.780;2022-10-31T09:11:38;8.17;;;7.33;;
6017;SDS011;3037;51.068;13.780;2022-10-31T09:14:04;10.43;;;7.93;;
6017;SDS011;3037;51.068;13.780;2022-10-31T09:16:29;8.83;;;7.97;;
6017;SDS011;3037;51.068;13.780;2022-10-31T09:18:55;8.83;;;7.93;;
6017;SDS011;3037;51.068;13.780;2022-10-31T09:21:20;9.67;;;8.10;;
6017;SDS011;3037;51.068;13.780;2022-10-31T09:23:46;8.07;;;7.37;;
6017;SDS011;3037;51.068;13.780;2022-10-31T09:26:12;11.27;;;7.70;;
6017;SDS011;3037;51.068;13.780;2022-10-31T09:28:37;12.43;;;8.57;;
6017;SDS011;3037;51.068;13.780;2022-10-31T09:31:03;17.40;;;7.90;;
6017;SDS011;3037;51.068;13.780;2022-10-31T09:33:28;11.43;;;7.90;;
6017;SDS011;3037;51.068;13.780;2022-10-31T09:35:54;7.20;;;6.23;;
6017;SDS011;3037;51.068;13.780;2022-10-31T09:38:20;8.73;;;7.20;;
6017;SDS011;3037;51.068;13.780;2022-10-31T09:49:17;26.23;;;11.57;;
6017;SDS011;3037;51.068;13.780;2022-10-31T09:51:52;9.40;;;7.63;;
6017;SDS011;3037;51.068;13.780;2022-10-31T09:54:50;9.60;;;8.40;;
6017;SDS011;3037;51.068;13.780;2022-10-31T09:57:32;17.80;;;7.93;;
6017;SDS011;3037;51.068;13.780;2022-10-31T09:59:59;19.33;;;12.43;;
6017;SDS011;3037;51.068;13.780;2022-10-31T10:02:34;24.97;;;16.03;;
6017;SDS011;3037;51.068;13.780;2022-10-31T10:05:05;17.37;;;12.70;;
6017;SDS011;3037;51.068;13.780;2022-10-31T10:07:41;28.20;;;16.50;;
6017;SDS011;3037;51.068;13.780;2022-10-31T10:13:22;25.57;;;18.53;;
6017;SDS011;3037;51.068;13.780;2022-10-31T10:16:40;16.00;;;10.80;;
6017;SDS011;3037;51.068;13.780;2022-10-31T10:30:03;19.00;;;10.13;;
6017;SDS011;3037;51.068;13.780;2022-10-31T10:33:17;12.40;;;5.90;;
6017;SDS011;3037;51.068;13.780;2022-10-31T10:35:24;15.13;;;8.63;;
6017;SDS011;3037;51.068;13.780;2022-10-31T10:37:57;15.00;;;9.20;;
6017;SDS011;3037;51.068;13.780;2022-10-31T10:40:32;19.37;;;9.23;;
6017;SDS011;3037;51.068;13.780;2022-10-31T10:43:20;15.03;;;7.30;;
6017;SDS011;3037;51.068;13.780;2022-10-31T10:48:50;11.27;;;7.00;;
6017;SDS011;3037;51.068;13.780;2022-10-31T10:51:28;8.43;;;5.50;;
6017;SDS011;3037;51.068;13.780;2022-10-31T10:54:33;12.70;;;5.70;;
6017;SDS011;3037;51.068;13.780;2022-10-31T10:59:45;14.30;;;5.97;;
6017;SDS011;3037;51.068;13.780;2022-10-31T11:02:18;8.60;;;7.70;;
6017;SDS011;3037;51.068;13.780;2022-10-31T11:04:52;15.90;;;6.13;;
6017;SDS011;3037;51.068;13.780;2022-10-31T11:07:19;13.00;;;6.47;;
6017;SDS011;3037;51.068;13.780;2022-10-31T11:09:46;13.67;;;6.77;;
6017;SDS011;3037;51.068;13.780;2022-10-31T11:12:20;13.60;;;6.77;;
6017;SDS011;3037;51.068;13.780;2022-10-31T11:14:50;16.03;;;7.20;;
6017;SDS011;3037;51.068;13.780;2022-10-31T11:17:28;9.23;;;6.67;;
6017;SDS011;3037;51.068;13.780;2022-10-31T11:22:29;16.07;;;7.80;;
6017;SDS011;3037;51.068;13.780;2022-10-31T11:24:55;17.27;;;8.73;;
6017;SDS011;3037;51.068;13.780;2022-10-31T11:27:22;26.97;;;9.27;;
6017;SDS011;3037;51.068;13.780;2022-10-31T11:29:49;31.00;;;10.30;;
6017;SDS011;3037;51.068;13.780;2022-10-31T11:32:24;14.07;;;9.40;;
6017;SDS011;3037;51.068;13.780;2022-10-31T11:34:53;18.40;;;10.10;;
6017;SDS011;3037;51.068;13.780;2022-10-31T11:37:23;25.90;;;11.13;;
6017;SDS011;3037;51.068;13.780;2022-10-31T11:39:55;16.43;;;9.97;;
6017;SDS011;3037;51.068;13.780;2022-10-31T11:42:23;15.17;;;9.73;;
6017;SDS011;3037;51.068;13.780;2022-10-31T11:44:52;17.53;;;9.90;;
6017;SDS011;3037;51.068;13.780;2022-10-31T11:47:22;20.30;;;10.67;;
6017;SDS011;3037;51.068;13.780;2022-10-31T11:49:53;20.73;;;11.50;;
6017;SDS011;3037;51.068;13.780;2022-10-31T11:52:27;28.33;;;11.80;;
6017;SDS011;3037;51.068;13.780;2022-10-31T11:55:03;26.20;;;10.90;;
6017;SDS011;3037;51.068;13.780;2022-10-31T11:57:49;26.00;;;9.87;;
6017;SDS011;3037;51.068;13.780;2022-10-31T12:05:41;23.67;;;11.60;;
6017;SDS011;3037;51.068;13.780;2022-10-31T12:08:09;28.33;;;13.97;;
6017;SDS011;3037;51.068;13.780;2022-10-31T12:10:44;26.90;;;11.50;;
6017;SDS011;3037;51.068;13.780;2022-10-31T12:18:58;23.17;;;9.37;;
6017;SDS011;3037;51.068;13.780;2022-10-31T12:21:40;18.37;;;9.77;;
6017;SDS011;3037;51.068;13.780;2022-10-31T12:29:41;26.70;;;7.30;;
6017;SDS011;3037;51.068;13.780;2022-10-31T12:46:00;27.50;;;8.53;;
6017;SDS011;3037;51.068;13.780;2022-10-31T12:59:36;31.87;;;14.67;;
6017;SDS011;3037;51.068;13.780;2022-10-31T13:05:05;12.90;;;7.83;;
6017;SDS011;3037;51.068;13.780;2022-10-31T13:07:39;21.90;;;7.93;;
6017;SDS011;3037;51.068;13.780;2022-10-31T13:12:37;13.00;;;6.70;;
6017;SDS011;3037;51.068;13.780;2022-10-31T13:15:26;10.87;;;6.90;;
6017;SDS011;3037;51.068;13.780;2022-10-31T13:17:56;22.33;;;7.90;;
6017;SDS011;3037;51.068;13.780;2022-10-31T13:20:27;11.93;;;6.40;;
6017;SDS011;3037;51.068;13.780;2022-10-31T13:23:00;14.13;;;6.40;;
6017;SDS011;3037;51.068;13.780;2022-10-31T13:25:33;11.80;;;6.53;;
6017;SDS011;3037;51.068;13.780;2022-10-31T13:28:09;18.03;;;6.30;;
6017;SDS011;3037;51.068;13.780;2022-10-31T13:30:48;24.97;;;6.53;;
6017;SDS011;3037;51.068;13.780;2022-10-31T13:33:17;8.73;;;5.40;;
6017;SDS011;3037;51.068;13.780;2022-10-31T13:36:13;11.30;;;6.27;;
6017;SDS011;3037;51.068;13.780;2022-10-31T13:42:01;20.97;;;6.40;;
6017;SDS011;3037;51.068;13.780;2022-10-31T13:44:48;13.40;;;6.30;;
6017;SDS011;3037;51.068;13.780;2022-10-31T13:49:45;8.13;;;4.73;;
6017;SDS011;3037;51.068;13.780;2022-10-31T13:57:16;13.17;;;6.13;;
6017;SDS011;3037;51.068;13.780;2022-10-31T13:59:54;18.73;;;5.67;;
6017;SDS011;3037;51.068;13.780;2022-10-31T14:02:27;18.83;;;6.47;;
6017;SDS011;3037;51.068;13.780;2022-10-31T14:04:59;15.03;;;6.40;;
6017;SDS011;3037;51.068;13.780;2022-10-31T14:07:42;15.20;;;6.80;;
6017;SDS011;3037;51.068;13.780;2022-10-31T14:10:25;10.70;;;5.23;;
6017;SDS011;3037;51.068;13.780;2022-10-31T14:13:06;8.60;;;5.77;;
6017;SDS011;3037;51.068;13.780;2022-10-31T14:15:39;14.30;;;5.57;;
6017;SDS011;3037;51.068;13.780;2022-10-31T14:18:18;14.57;;;6.30;;
6017;SDS011;3037;51.068;13.780;2022-10-31T14:20:53;14.23;;;6.87;;
6017;SDS011;3037;51.068;13.780;2022-10-31T14:23:31;13.47;;;5.87;;
6017;SDS011;3037;51.068;13.780;2022-10-31T14:26:33;12.07;;;5.33;;
6017;SDS011;3037;51.068;13.780;2022-10-31T14:28:57;11.67;;;5.07;;
6017;SDS011;3037;51.068;13.780;2022-10-31T14:31:39;13.20;;;6.53;;
6017;SDS011;3037;51.068;13.780;2022-10-31T14:42:04;7.90;;;5.33;;
6017;SDS011;3037;51.068;13.780;2022-10-31T14:47:51;9.63;;;6.17;;
6017;SDS011;3037;51.068;13.780;2022-10-31T14:50:53;13.77;;;5.60;;
6017;SDS011;3037;51.068;13.780;2022-10-31T14:55:50;18.40;;;6.30;;
6017;SDS011;3037;51.068;13.780;2022-10-31T14:58:19;15.53;;;5.53;;
6017;SDS011;3037;51.068;13.780;2022-10-31T15:00:48;9.57;;;5.43;;
6017;SDS011;3037;51.068;13.780;2022-10-31T15:03:22;9.50;;;5.23;;
6017;SDS011;3037;51.068;13.780;2022-10-31T15:05:55;12.20;;;6.37;;
6017;SDS011;3037;51.068;13.780;2022-10-31T15:08:31;6.90;;;5.27;;
6017;SDS011;3037;51.068;13.780;2022-10-31T15:11:03;7.13;;;5.23;;
6017;SDS011;3037;51.068;13.780;2022-10-31T15:13:41;26.87;;;5.27;;
6017;SDS011;3037;51.068;13.780;2022-10-31T15:16:12;10.43;;;5.20;;
6017;SDS011;3037;51.068;13.780;2022-10-31T15:18:47;11.77;;;6.43;;
6017;SDS011;3037;51.068;13.780;2022-10-31T15:21:16;13.37;;;7.07;;
6017;SDS011;3037;51.068;13.780;2022-10-31T15:23:42;11.50;;;6.67;;
6017;SDS011;3037;51.068;13.780;2022-10-31T15:26:15;12.03;;;6.60;;
6017;SDS011;3037;51.068;13.780;2022-10-31T15:28:43;9.83;;;5.30;;
6017;SDS011;3037;51.068;13.780;2022-10-31T15:31:13;12.57;;;6.30;;
6017;SDS011;3037;51.068;13.780;2022-10-31T15:33:42;17.00;;;10.80;;
6017;SDS011;3037;51.068;13.780;2022-10-31T15:36:18;12.03;;;7.60;;
6017;SDS011;3037;51.068;13.780;2022-10-31T15:38:48;14.00;;;6.20;;
6017;SDS011;3037;51.068;13.780;2022-10-31T15:41:19;6.33;;;4.57;;
6017;SDS011;3037;51.068;13.780;2022-10-31T15:43:53;17.53;;;7.73;;
6017;SDS011;3037;51.068;13.780;2022-10-31T15:46:20;17.57;;;8.70;;
6017;SDS011;3037;51.068;13.780;2022-10-31T15:48:46;12.40;;;6.20;;
6017;SDS011;3037;51.068;13.780;2022-10-31T15:51:13;10.90;;;5.43;;
6017;SDS011;3037;51.068;13.780;2022-10-31T15:56:11;23.53;;;10.60;;
6017;SDS011;3037;51.068;13.780;2022-10-31T15:58:45;24.50;;;10.43;;
6017;SDS011;3037;51.068;13.780;2022-10-31T16:01:23;12.93;;;7.37;;
6017;SDS011;3037;51.068;13.780;2022-10-31T16:04:22;8.97;;;5.57;;
6017;SDS011;3037;51.068;13.780;2022-10-31T16:12:18;17.93;;;8.83;;
6017;SDS011;3037;51.068;13.780;2022-10-31T16:14:45;23.13;;;9.17;;
6017;SDS011;3037;51.068;13.780;2022-10-31T16:17:14;16.17;;;7.23;;
6017;SDS011;3037;51.068;13.780;2022-10-31T16:19:58;15.90;;;7.00;;
6017;SDS011;3037;51.068;13.780;2022-10-31T16:22:46;18.30;;;7.60;;
6017;SDS011;3037;51.068;13.780;2022-10-31T16:25:15;22.33;;;11.53;;
6017;SDS011;3037;51.068;13.780;2022-10-31T16:27:50;19.13;;;9.50;;
6017;SDS011;3037;51.068;13.780;2022-10-31T16:33:02;15.87;;;7.80;;
6017;SDS011;3037;51.068;13.780;2022-10-31T16:35:35;15.90;;;7.20;;
6017;SDS011;3037;51.068;13.780;2022-10-31T16:38:03;16.23;;;6.57;;
6017;SDS011;3037;51.068;13.780;2022-10-31T16:40:29;14.03;;;7.10;;
6017;SDS011;3037;51.068;13.780;2022-10-31T16:42:59;12.90;;;7.00;;
6017;SDS011;3037;51.068;13.780;2022-10-31T16:45:26;16.10;;;7.57;;
6017;SDS011;3037;51.068;13.780;2022-10-31T16:47:54;13.77;;;7.00;;
6017;SDS011;3037;51.068;13.780;2022-10-31T16:50:30;13.20;;;7.53;;
6017;SDS011;3037;51.068;13.780;2022-10-31T16:52:56;14.27;;;7.40;;
6017;SDS011;3037;51.068;13.780;2022-10-31T16:55:22;19.97;;;8.80;;
6017;SDS011;3037;51.068;13.780;2022-10-31T16:57:49;16.47;;;8.30;;
6017;SDS011;3037;51.068;13.780;2022-10-31T17:00:18;21.30;;;9.10;;
6017;SDS011;3037;51.068;13.780;2022-10-31T17:02:45;14.97;;;8.53;;
6017;SDS011;3037;51.068;13.780;2022-10-31T17:05:14;15.33;;;9.40;;
6017;SDS011;3037;51.068;13.780;2022-10-31T17:07:41;32.90;;;9.27;;
6017;SDS011;3037;51.068;13.780;2022-10-31T17:10:07;21.83;;;9.60;;
6017;SDS011;3037;51.068;13.780;2022-10-31T17:12:33;23.07;;;10.30;;